METAR Data
IDs: Format: Raw Decoded Include TAF

Data at: 0841 UTC 13 Aug 2022

LSZG 130820Z 07010KT CAVOK 21/10 Q1015